Terminal Aerodrome Forecast
Issued by NWS Pittsburgh, PA

Current Version | Previous Version | Graphics & Text | Print | Product List | Glossary On
Versions: 1 2 3 4 5 6 7 8 9 10 11 12 13 14 15 16 17 18 19 20 21 22 23 24 25 26 27 28 29
707
FTUS41 KPBZ 182110 AAA
TAFPIT
TAF AMD
KPIT 182110Z 1821/1924 VRB03KT P6SM SCT040
     FM190000 08003KT P6SM SCT150
     FM191000 00000KT 2SM BR SCT002
     FM191400 02003KT P6SM SCT150=

USA.gov is the U.S. government's official web portal to all federal, state and local government web resources and services.